Corpus Christi, TX (78401)

9:23 AM CST on December 11, 2016 (GMT -0600)
Aransas Cliffs | | Change Station

Elev 46 ft 27.75 °N, 97.38 °W | Updated 45 seconds ago

Overcast
Overcast
58.3 °F
Feels Like 58.3 °F
N
0.0
Wind Variable Wind from North
Gusts 0.0 mph

Today
High -- | Low -- °F
--% Chance of Precip.
Yesterday
High -- | Low -- °F
Precip. -- in
Pressure 30.09 in
Visibility 4.0 miles
Clouds Mostly Cloudy 600 ft
Mostly Cloudy 3500 ft
Overcast 5000 ft
Dew Point 56 °F
Humidity 92%
Rainfall 0.00 in
Snow Depth Not available.
7:10 AM 5:35 PM
Waxing Gibbous, 92% visible
METAR KCRP 111451Z 22003KT 4SM BR BKN006 BKN035 OVC050 13/13 A3009 RMK AO2 SLP190 T01330133 53007
Pressure 30.09 in
Visibility 4.0 miles
Clouds Mostly Cloudy 600 ft
Mostly Cloudy 3500 ft
Overcast 5000 ft
Dew Point 56 °F
Humidity 92%
Rainfall 0.00 in
Snow Depth Not available.
7:10 AM 5:35 PM
Waxing Gibbous, 92% visible
METAR KCRP 111451Z 22003KT 4SM BR BKN006 BKN035 OVC050 13/13 A3009 RMK AO2 SLP190 T01330133 53007

10-Day Weather Forecast

Almanac

Astronomy

Dec. 11, 2016 Rise Set
Actual Time
Civil Twilight
Nautical Twilight
Astronomical Twilight
Moon
Length of Visible Light
Length of Day
Tomorrow will be .
, % of the Moon is Illuminated

Today's Extremes

State Highs State Lows

Community

WunderPhotos

Upload Photos

1,956,725 photos uploaded!

WunderBlog® & News

Nearby

Air Quality

  Air Quality AQ Index Pollutant
Not available.

Snow Depth

Station Depth Elevation

Earthquake Activity

City Distance Mag. Time & Date
Minimum magnitude displayed is 2.5.

Coastal Water Temperatures

Place Temperature

Stations

Nearby Weather Stations

Station Location Temp. Windchill Dew Point Humidity Wind Precip. Elev Updated Type
                   

Watches & Warnings

There are currently no watches in effect.